DLH31T EDDF-EDXW
Flight info
| Callsign | DLH31T |
|---|---|
| Flight time | 0h 53m |
| Altitude | 34000 |
| Route | MARUN3W/25C MARUN Y150 TOLGI DCT ELSOB Y348 OMWEG DCT BADOS DCT OLDIP |
| Aircraft | A320/M-SDE3FGHIRWY/LB1 |
Departure
| Time | 2026-05-06 13:53 |
|---|---|
| Airport | Frankfurt Main Airport (EDDF) |
Arrival
| Time | 2026-05-06 14:46 |
|---|---|
| Airport | Westerland Sylt Airport (EDXW) |
| Time | Latitude | Longitude | Altitude | Speed | Heading |
|---|---|---|---|---|---|
| 2026-05-06 13:27 | 50.04739 | 8.58178 | 347 ft | 0 kts | 159° |
| 2026-05-06 13:41 | 50.04747 | 8.58174 | 361 ft | 2 kts | 159° |
| 2026-05-06 13:41 | 50.04762 | 8.58165 | 349 ft | 2 kts | 162° |
| 2026-05-06 13:42 | 50.04778 | 8.58157 | 355 ft | 2 kts | 167° |
| 2026-05-06 13:42 | 50.04794 | 8.58153 | 348 ft | 2 kts | 190° |
| 2026-05-06 13:42 | 50.04808 | 8.58165 | 350 ft | 2 kts | 249° |
| 2026-05-06 13:42 | 50.04810 | 8.58172 | 357 ft | 0 kts | 250° |
| 2026-05-06 13:47 | 50.04809 | 8.58168 | 350 ft | 3 kts | 250° |
| 2026-05-06 13:47 | 50.04795 | 8.58111 | 346 ft | 8 kts | 250° |
| 2026-05-06 13:47 | 50.04771 | 8.58013 | 355 ft | 13 kts | 248° |
| 2026-05-06 13:48 | 50.04696 | 8.57961 | 349 ft | 13 kts | 169° |
| 2026-05-06 13:48 | 50.04640 | 8.57998 | 353 ft | 0 kts | 156° |
| 2026-05-06 13:50 | 50.04593 | 8.58030 | 354 ft | 22 kts | 157° |
| 2026-05-06 13:50 | 50.04478 | 8.58095 | 350 ft | 3 kts | 160° |
| 2026-05-06 13:52 | 50.04406 | 8.58126 | 352 ft | 18 kts | 182° |
| 2026-05-06 13:52 | 50.04360 | 8.58060 | 349 ft | 0 kts | 251° |
| 2026-05-06 13:52 | 50.04359 | 8.58056 | 346 ft | 3 kts | 251° |
| 2026-05-06 13:53 | 50.04284 | 8.57739 | 348 ft | 68 kts | 249° |
| 2026-05-06 13:53 | 50.04042 | 8.56747 | 346 ft | 126 kts | 249° |
| 2026-05-06 13:53 | 50.03680 | 8.55222 | 412 ft | 164 kts | 249° |
| 2026-05-06 13:53 | 50.03289 | 8.53561 | 1056 ft | 164 kts | 249° |
| 2026-05-06 13:54 | 50.02891 | 8.51873 | 1714 ft | 172 kts | 250° |
| 2026-05-06 13:54 | 50.02355 | 8.50117 | 2074 ft | 192 kts | 234° |
| 2026-05-06 13:54 | 50.01338 | 8.48677 | 2633 ft | 199 kts | 211° |
| 2026-05-06 13:54 | 50.00030 | 8.47986 | 3289 ft | 205 kts | 191° |
| 2026-05-06 13:55 | 49.98601 | 8.47677 | 4066 ft | 204 kts | 191° |
| 2026-05-06 13:55 | 49.97194 | 8.47365 | 4832 ft | 205 kts | 191° |
| 2026-05-06 13:55 | 49.95787 | 8.46966 | 5513 ft | 209 kts | 198° |
| 2026-05-06 13:55 | 49.94309 | 8.46282 | 5899 ft | 232 kts | 198° |
| 2026-05-06 13:56 | 49.92743 | 8.45507 | 6539 ft | 241 kts | 205° |
| 2026-05-06 13:56 | 49.91409 | 8.43962 | 7263 ft | 243 kts | 232° |
| 2026-05-06 13:56 | 49.90686 | 8.41591 | 8053 ft | 248 kts | 258° |
| 2026-05-06 13:56 | 49.90775 | 8.38915 | 8830 ft | 255 kts | 286° |
| 2026-05-06 13:57 | 49.91720 | 8.36555 | 9599 ft | 265 kts | 315° |
| 2026-05-06 13:57 | 49.93333 | 8.35092 | 10271 ft | 275 kts | 334° |
| 2026-05-06 13:57 | 49.95171 | 8.33881 | 10522 ft | 299 kts | 335° |
| 2026-05-06 13:57 | 49.97142 | 8.32613 | 10735 ft | 322 kts | 335° |
| 2026-05-06 13:58 | 49.99316 | 8.31222 | 10965 ft | 343 kts | 335° |
| 2026-05-06 13:58 | 50.01569 | 8.29838 | 11535 ft | 352 kts | 340° |
| 2026-05-06 13:58 | 50.03986 | 8.29043 | 12232 ft | 359 kts | 353° |
| 2026-05-06 13:58 | 50.06507 | 8.29063 | 12956 ft | 366 kts | 5° |
| 2026-05-06 13:59 | 50.08997 | 8.29941 | 13655 ft | 371 kts | 17° |
| 2026-05-06 13:59 | 50.11459 | 8.31238 | 14270 ft | 374 kts | 17° |
| 2026-05-06 13:59 | 50.13939 | 8.32543 | 14866 ft | 378 kts | 17° |
| 2026-05-06 13:59 | 50.16446 | 8.33860 | 15460 ft | 382 kts | 18° |
| 2026-05-06 14:00 | 50.18982 | 8.35190 | 16048 ft | 386 kts | 18° |
| 2026-05-06 14:00 | 50.21541 | 8.36531 | 16643 ft | 390 kts | 18° |
| 2026-05-06 14:00 | 50.24127 | 8.37887 | 17234 ft | 394 kts | 18° |
| 2026-05-06 14:00 | 50.26734 | 8.39259 | 17820 ft | 398 kts | 18° |
| 2026-05-06 14:01 | 50.29367 | 8.40649 | 18354 ft | 401 kts | 18° |
| 2026-05-06 14:01 | 50.32021 | 8.42066 | 18873 ft | 404 kts | 18° |
| 2026-05-06 14:01 | 50.34693 | 8.43520 | 19392 ft | 408 kts | 18° |
| 2026-05-06 14:01 | 50.37380 | 8.44993 | 19920 ft | 411 kts | 18° |
| 2026-05-06 14:02 | 50.40088 | 8.46482 | 20443 ft | 414 kts | 18° |
| 2026-05-06 14:02 | 50.42817 | 8.47984 | 20969 ft | 417 kts | 17° |
| 2026-05-06 14:02 | 50.45568 | 8.49496 | 21492 ft | 421 kts | 17° |
| 2026-05-06 14:02 | 50.48345 | 8.51009 | 21982 ft | 424 kts | 16° |
| 2026-05-06 14:03 | 50.51160 | 8.52440 | 22466 ft | 427 kts | 15° |
| 2026-05-06 14:03 | 50.54020 | 8.53819 | 22918 ft | 431 kts | 16° |
| 2026-05-06 14:03 | 50.56727 | 8.55881 | 23349 ft | 438 kts | 31° |
| 2026-05-06 14:03 | 50.59273 | 8.58547 | 23715 ft | 441 kts | 32° |
| 2026-05-06 14:04 | 50.60962 | 8.60337 | 23965 ft | 443 kts | 32° |
| 2026-05-06 14:04 | 50.63517 | 8.63066 | 24341 ft | 445 kts | 33° |
| 2026-05-06 14:04 | 50.66090 | 8.65831 | 24738 ft | 448 kts | 33° |
| 2026-05-06 14:04 | 50.68672 | 8.68609 | 25125 ft | 451 kts | 33° |
| 2026-05-06 14:05 | 50.71270 | 8.71406 | 25468 ft | 453 kts | 33° |
| 2026-05-06 14:05 | 50.73881 | 8.74210 | 25807 ft | 456 kts | 33° |
| 2026-05-06 14:05 | 50.76512 | 8.77029 | 26142 ft | 458 kts | 33° |
| 2026-05-06 14:05 | 50.79153 | 8.79860 | 26484 ft | 460 kts | 33° |
| 2026-05-06 14:06 | 50.81807 | 8.82708 | 26825 ft | 462 kts | 33° |
| 2026-05-06 14:06 | 50.84472 | 8.85574 | 27148 ft | 464 kts | 33° |
| 2026-05-06 14:06 | 50.87146 | 8.88455 | 27471 ft | 466 kts | 33° |
| 2026-05-06 14:06 | 50.89833 | 8.91358 | 27710 ft | 468 kts | 33° |
| 2026-05-06 14:07 | 50.92524 | 8.94270 | 27765 ft | 468 kts | 33° |
| 2026-05-06 14:07 | 50.95213 | 8.97184 | 27767 ft | 468 kts | 33° |
| 2026-05-06 14:07 | 50.97900 | 9.00094 | 27769 ft | 468 kts | 33° |
| 2026-05-06 14:07 | 51.00587 | 9.03010 | 27841 ft | 469 kts | 33° |
| 2026-05-06 14:08 | 51.03308 | 9.05886 | 28182 ft | 470 kts | 28° |
| 2026-05-06 14:08 | 51.06309 | 9.07915 | 28514 ft | 469 kts | 13° |
| 2026-05-06 14:08 | 51.09514 | 9.08780 | 28813 ft | 468 kts | 5° |
| 2026-05-06 14:08 | 51.12752 | 9.09380 | 29116 ft | 469 kts | 4° |
| 2026-05-06 14:09 | 51.15998 | 9.09964 | 29419 ft | 470 kts | 4° |
| 2026-05-06 14:09 | 51.19251 | 9.10542 | 29703 ft | 471 kts | 4° |
| 2026-05-06 14:09 | 51.22513 | 9.11123 | 29955 ft | 472 kts | 5° |
| 2026-05-06 14:09 | 51.25781 | 9.11711 | 30166 ft | 473 kts | 5° |
| 2026-05-06 14:10 | 51.29052 | 9.12308 | 30444 ft | 473 kts | 5° |
| 2026-05-06 14:10 | 51.32317 | 9.12914 | 30741 ft | 472 kts | 5° |
| 2026-05-06 14:10 | 51.35571 | 9.13519 | 31044 ft | 471 kts | 5° |
| 2026-05-06 14:10 | 51.38827 | 9.14119 | 31326 ft | 470 kts | 5° |
| 2026-05-06 14:11 | 51.42077 | 9.14716 | 31603 ft | 470 kts | 5° |
| 2026-05-06 14:11 | 51.45323 | 9.15311 | 31881 ft | 470 kts | 5° |
| 2026-05-06 14:11 | 51.48572 | 9.15907 | 32156 ft | 470 kts | 5° |
| 2026-05-06 14:11 | 51.51819 | 9.16503 | 32448 ft | 470 kts | 5° |
| 2026-05-06 14:12 | 51.55066 | 9.17104 | 32770 ft | 470 kts | 5° |
| 2026-05-06 14:12 | 51.58317 | 9.17712 | 33042 ft | 470 kts | 5° |
| 2026-05-06 14:12 | 51.61565 | 9.18317 | 33303 ft | 470 kts | 4° |
| 2026-05-06 14:12 | 51.64816 | 9.18917 | 33560 ft | 470 kts | 4° |
| 2026-05-06 14:13 | 51.68067 | 9.19516 | 33758 ft | 471 kts | 4° |
| 2026-05-06 14:13 | 51.71318 | 9.20121 | 33795 ft | 470 kts | 4° |
| 2026-05-06 14:13 | 51.77762 | 9.21337 | 33797 ft | 468 kts | 4° |
| 2026-05-06 14:14 | 51.84241 | 9.22554 | 33797 ft | 468 kts | 4° |
| 2026-05-06 14:14 | 51.90707 | 9.23766 | 33799 ft | 468 kts | 4° |
| 2026-05-06 14:15 | 51.97175 | 9.24979 | 33810 ft | 468 kts | 4° |
| 2026-05-06 14:15 | 52.03643 | 9.26194 | 33815 ft | 468 kts | 5° |
| 2026-05-06 14:16 | 52.10105 | 9.27422 | 33822 ft | 467 kts | 5° |
| 2026-05-06 14:16 | 52.16566 | 9.28650 | 33831 ft | 467 kts | 5° |
| 2026-05-06 14:17 | 52.23022 | 9.29886 | 33835 ft | 467 kts | 5° |
| 2026-05-06 14:17 | 52.29517 | 9.31133 | 33833 ft | 467 kts | 5° |
| 2026-05-06 14:18 | 52.35972 | 9.32365 | 33843 ft | 467 kts | 5° |
| 2026-05-06 14:18 | 52.42426 | 9.33600 | 33846 ft | 466 kts | 5° |
| 2026-05-06 14:19 | 52.48868 | 9.34839 | 33848 ft | 466 kts | 5° |
| 2026-05-06 14:19 | 52.55262 | 9.36080 | 33848 ft | 465 kts | 5° |
| 2026-05-06 14:20 | 52.61693 | 9.37329 | 33853 ft | 465 kts | 5° |
| 2026-05-06 14:20 | 52.68113 | 9.38567 | 33855 ft | 464 kts | 5° |
| 2026-05-06 14:21 | 52.74529 | 9.39814 | 33859 ft | 464 kts | 5° |
| 2026-05-06 14:21 | 52.80939 | 9.41075 | 33869 ft | 464 kts | 5° |
| 2026-05-06 14:22 | 52.87348 | 9.42344 | 33867 ft | 463 kts | 5° |
| 2026-05-06 14:22 | 52.93742 | 9.43603 | 33869 ft | 462 kts | 6° |
| 2026-05-06 14:23 | 53.00130 | 9.44869 | 33880 ft | 462 kts | 6° |
| 2026-05-06 14:23 | 53.06512 | 9.46129 | 33871 ft | 461 kts | 6° |
| 2026-05-06 14:24 | 53.12884 | 9.47391 | 33874 ft | 461 kts | 6° |
| 2026-05-06 14:24 | 53.19250 | 9.48477 | 33877 ft | 459 kts | 357° |
| 2026-05-06 14:25 | 53.22392 | 9.47758 | 33876 ft | 455 kts | 342° |
| 2026-05-06 14:25 | 53.25410 | 9.46204 | 33847 ft | 454 kts | 340° |
| 2026-05-06 14:25 | 53.28413 | 9.44599 | 33170 ft | 453 kts | 341° |
| 2026-05-06 14:25 | 53.31420 | 9.42969 | 32288 ft | 455 kts | 341° |
| 2026-05-06 14:26 | 53.34438 | 9.41323 | 31409 ft | 457 kts | 341° |
| 2026-05-06 14:26 | 53.37451 | 9.39678 | 30793 ft | 453 kts | 341° |
| 2026-05-06 14:26 | 53.40436 | 9.38054 | 30199 ft | 449 kts | 341° |
| 2026-05-06 14:26 | 53.43398 | 9.36449 | 29571 ft | 445 kts | 342° |
| 2026-05-06 14:27 | 53.46333 | 9.34865 | 28932 ft | 441 kts | 341° |
| 2026-05-06 14:27 | 53.49243 | 9.33291 | 28311 ft | 437 kts | 341° |
| 2026-05-06 14:27 | 53.52123 | 9.31724 | 27712 ft | 433 kts | 341° |
| 2026-05-06 14:27 | 53.54977 | 9.30167 | 27140 ft | 430 kts | 341° |
| 2026-05-06 14:28 | 53.57812 | 9.28622 | 26547 ft | 426 kts | 341° |
| 2026-05-06 14:28 | 53.60622 | 9.27090 | 25967 ft | 421 kts | 341° |
| 2026-05-06 14:28 | 53.63394 | 9.25574 | 25215 ft | 419 kts | 340° |
| 2026-05-06 14:28 | 53.66156 | 9.24060 | 24811 ft | 414 kts | 340° |
| 2026-05-06 14:29 | 53.68877 | 9.22564 | 23941 ft | 409 kts | 340° |
| 2026-05-06 14:29 | 53.71563 | 9.21083 | 23037 ft | 404 kts | 340° |
| 2026-05-06 14:29 | 53.74233 | 9.19612 | 22385 ft | 403 kts | 340° |
| 2026-05-06 14:29 | 53.76884 | 9.18153 | 21901 ft | 399 kts | 340° |
| 2026-05-06 14:30 | 53.79517 | 9.16707 | 21413 ft | 396 kts | 340° |
| 2026-05-06 14:30 | 53.82163 | 9.15251 | 20922 ft | 393 kts | 340° |
| 2026-05-06 14:30 | 53.84725 | 9.13838 | 20456 ft | 391 kts | 340° |
| 2026-05-06 14:30 | 53.87296 | 9.12414 | 19992 ft | 388 kts | 340° |
| 2026-05-06 14:31 | 53.89854 | 9.10993 | 19537 ft | 385 kts | 340° |
| 2026-05-06 14:31 | 53.92393 | 9.09581 | 19084 ft | 383 kts | 340° |
| 2026-05-06 14:31 | 53.94917 | 9.08179 | 18647 ft | 380 kts | 340° |
| 2026-05-06 14:31 | 53.97425 | 9.06787 | 18201 ft | 378 kts | 340° |
| 2026-05-06 14:32 | 53.99921 | 9.05401 | 17723 ft | 376 kts | 340° |
| 2026-05-06 14:32 | 54.02394 | 9.04022 | 17267 ft | 373 kts | 340° |
| 2026-05-06 14:32 | 54.04848 | 9.02652 | 16848 ft | 369 kts | 340° |
| 2026-05-06 14:32 | 54.07280 | 9.01294 | 16435 ft | 366 kts | 340° |
| 2026-05-06 14:33 | 54.09690 | 8.99947 | 16044 ft | 362 kts | 340° |
| 2026-05-06 14:33 | 54.12078 | 8.98610 | 15561 ft | 362 kts | 339° |
| 2026-05-06 14:33 | 54.14469 | 8.97263 | 15083 ft | 361 kts | 339° |
| 2026-05-06 14:33 | 54.16811 | 8.95945 | 14616 ft | 347 kts | 340° |
| 2026-05-06 14:34 | 54.19058 | 8.94685 | 14168 ft | 334 kts | 339° |
| 2026-05-06 14:34 | 54.21231 | 8.93469 | 13749 ft | 326 kts | 339° |
| 2026-05-06 14:34 | 54.23394 | 8.92251 | 13088 ft | 327 kts | 340° |
| 2026-05-06 14:34 | 54.25561 | 8.91025 | 12122 ft | 330 kts | 340° |
| 2026-05-06 14:35 | 54.27738 | 8.89792 | 11320 ft | 331 kts | 340° |
| 2026-05-06 14:35 | 54.29912 | 8.88560 | 10892 ft | 328 kts | 341° |
| 2026-05-06 14:35 | 54.32069 | 8.87333 | 10467 ft | 326 kts | 341° |
| 2026-05-06 14:35 | 54.34214 | 8.86112 | 10039 ft | 323 kts | 341° |
| 2026-05-06 14:36 | 54.36307 | 8.84922 | 9711 ft | 306 kts | 341° |
| 2026-05-06 14:36 | 54.38259 | 8.83812 | 9434 ft | 288 kts | 342° |
| 2026-05-06 14:36 | 54.40135 | 8.82747 | 8865 ft | 281 kts | 342° |
| 2026-05-06 14:36 | 54.41982 | 8.81699 | 8235 ft | 277 kts | 343° |
| 2026-05-06 14:37 | 54.43802 | 8.80663 | 7597 ft | 274 kts | 343° |
| 2026-05-06 14:37 | 54.45598 | 8.79639 | 6967 ft | 271 kts | 344° |
| 2026-05-06 14:37 | 54.47377 | 8.78625 | 6364 ft | 270 kts | 344° |
| 2026-05-06 14:37 | 54.49153 | 8.77611 | 5974 ft | 268 kts | 344° |
| 2026-05-06 14:38 | 54.50915 | 8.76601 | 5575 ft | 266 kts | 344° |
| 2026-05-06 14:38 | 54.52659 | 8.75601 | 5194 ft | 263 kts | 345° |
| 2026-05-06 14:38 | 54.54394 | 8.74606 | 4796 ft | 262 kts | 345° |
| 2026-05-06 14:38 | 54.56120 | 8.73615 | 4379 ft | 261 kts | 345° |
| 2026-05-06 14:39 | 54.57828 | 8.72636 | 3990 ft | 258 kts | 345° |
| 2026-05-06 14:39 | 54.59524 | 8.71663 | 3568 ft | 256 kts | 345° |
| 2026-05-06 14:39 | 54.61201 | 8.70660 | 3177 ft | 255 kts | 340° |
| 2026-05-06 14:39 | 54.62748 | 8.69170 | 2965 ft | 256 kts | 329° |
| 2026-05-06 14:40 | 54.64206 | 8.67400 | 2973 ft | 257 kts | 327° |
| 2026-05-06 14:40 | 54.65660 | 8.65600 | 2978 ft | 258 kts | 328° |
| 2026-05-06 14:40 | 54.67123 | 8.63809 | 2982 ft | 258 kts | 328° |
| 2026-05-06 14:40 | 54.68589 | 8.62021 | 2982 ft | 258 kts | 328° |
| 2026-05-06 14:41 | 54.70058 | 8.60225 | 2990 ft | 258 kts | 328° |
| 2026-05-06 14:41 | 54.71522 | 8.58435 | 2992 ft | 255 kts | 328° |
| 2026-05-06 14:41 | 54.72923 | 8.56715 | 2988 ft | 238 kts | 328° |
| 2026-05-06 14:41 | 54.74242 | 8.55098 | 2995 ft | 230 kts | 329° |
| 2026-05-06 14:42 | 54.75533 | 8.53517 | 2993 ft | 220 kts | 328° |
| 2026-05-06 14:42 | 54.76730 | 8.52045 | 2998 ft | 208 kts | 328° |
| 2026-05-06 14:42 | 54.77911 | 8.50597 | 2991 ft | 209 kts | 328° |
| 2026-05-06 14:42 | 54.79098 | 8.49140 | 2821 ft | 209 kts | 328° |
| 2026-05-06 14:43 | 54.80278 | 8.47687 | 2560 ft | 206 kts | 328° |
| 2026-05-06 14:43 | 54.81413 | 8.46288 | 2311 ft | 193 kts | 329° |
| 2026-05-06 14:43 | 54.82468 | 8.44986 | 2036 ft | 180 kts | 329° |
| 2026-05-06 14:43 | 54.83461 | 8.43763 | 1789 ft | 169 kts | 328° |
| 2026-05-06 14:44 | 54.84082 | 8.42997 | 1636 ft | 162 kts | 328° |
| 2026-05-06 14:44 | 54.84964 | 8.41908 | 1443 ft | 148 kts | 328° |
| 2026-05-06 14:44 | 54.85770 | 8.40913 | 1228 ft | 136 kts | 328° |
| 2026-05-06 14:45 | 54.87258 | 8.39077 | 857 ft | 127 kts | 328° |
| 2026-05-06 14:45 | 54.87984 | 8.38181 | 678 ft | 128 kts | 328° |
| 2026-05-06 14:45 | 54.88693 | 8.37290 | 550 ft | 125 kts | 329° |
| 2026-05-06 14:45 | 54.89398 | 8.36426 | 350 ft | 123 kts | 331° |
| 2026-05-06 14:46 | 54.90096 | 8.35568 | 170 ft | 123 kts | 328° |
| 2026-05-06 14:46 | 54.90777 | 8.34723 | 42 ft | 111 kts | 326° |
| 2026-05-06 14:46 | 54.91292 | 8.34085 | 42 ft | 72 kts | 324° |
| 2026-05-06 14:46 | 54.91588 | 8.33721 | 43 ft | 28 kts | 323° |
| 2026-05-06 14:47 | 54.91734 | 8.33544 | 43 ft | 23 kts | 324° |
| 2026-05-06 14:47 | 54.91858 | 8.33384 | 41 ft | 20 kts | 322° |
| 2026-05-06 14:47 | 54.91862 | 8.33226 | 41 ft | 15 kts | 211° |
| 2026-05-06 14:47 | 54.91770 | 8.33179 | 41 ft | 13 kts | 183° |
| 2026-05-06 14:48 | 54.91684 | 8.33178 | 41 ft | 12 kts | 180° |
| 2026-05-06 14:48 | 54.91608 | 8.33177 | 41 ft | 10 kts | 180° |
| 2026-05-06 14:48 | 54.91538 | 8.33177 | 41 ft | 9 kts | 180° |
| 2026-05-06 14:48 | 54.91472 | 8.33191 | 40 ft | 10 kts | 158° |
| 2026-05-06 14:49 | 54.91394 | 8.33228 | 40 ft | 11 kts | 213° |
| 2026-05-06 14:49 | 54.91387 | 8.33118 | 40 ft | 1 kts | 270° |